sensor_id;sensor_type;location;lat;lon;timestamp;temperature;humidity
16040;DHT22;8124;48.634;8.120;2022-12-11T00:03:47;2.70;99.90
16040;DHT22;8124;48.634;8.120;2022-12-11T00:08:51;2.50;99.90
16040;DHT22;8124;48.634;8.120;2022-12-11T00:13:56;2.60;99.90
16040;DHT22;8124;48.634;8.120;2022-12-11T00:18:59;2.60;99.90
16040;DHT22;8124;48.634;8.120;2022-12-11T00:24:02;2.70;99.90
16040;DHT22;8124;48.634;8.120;2022-12-11T00:29:06;2.70;99.90
16040;DHT22;8124;48.634;8.120;2022-12-11T00:34:11;2.50;99.90
16040;DHT22;8124;48.634;8.120;2022-12-11T00:39:14;2.40;99.90
16040;DHT22;8124;48.634;8.120;2022-12-11T00:44:19;2.30;99.90
16040;DHT22;8124;48.634;8.120;2022-12-11T00:49:22;2.00;99.90
16040;DHT22;8124;48.634;8.120;2022-12-11T00:54:25;2.10;99.90
16040;DHT22;8124;48.634;8.120;2022-12-11T00:59:29;2.10;99.90
16040;DHT22;8124;48.634;8.120;2022-12-11T01:04:34;1.90;99.90
16040;DHT22;8124;48.634;8.120;2022-12-11T01:09:37;1.90;99.90
16040;DHT22;8124;48.634;8.120;2022-12-11T01:14:59;1.80;99.90
16040;DHT22;8124;48.634;8.120;2022-12-11T01:20:02;1.80;99.90
16040;DHT22;8124;48.634;8.120;2022-12-11T01:25:05;1.50;99.90
16040;DHT22;8124;48.634;8.120;2022-12-11T01:30:12;1.20;99.90
16040;DHT22;8124;48.634;8.120;2022-12-11T01:35:15;1.10;99.90
16040;DHT22;8124;48.634;8.120;2022-12-11T01:40:19;1.10;99.90
16040;DHT22;8124;48.634;8.120;2022-12-11T01:45:33;1.10;99.90
16040;DHT22;8124;48.634;8.120;2022-12-11T01:50:43;1.40;99.90
16040;DHT22;8124;48.634;8.120;2022-12-11T01:55:48;1.50;99.90
16040;DHT22;8124;48.634;8.120;2022-12-11T02:00:55;1.60;99.90
16040;DHT22;8124;48.634;8.120;2022-12-11T02:05:58;1.70;99.90
16040;DHT22;8124;48.634;8.120;2022-12-11T02:11:06;1.60;99.90
16040;DHT22;8124;48.634;8.120;2022-12-11T02:16:19;1.70;99.90
16040;DHT22;8124;48.634;8.120;2022-12-11T02:21:26;1.70;99.90
16040;DHT22;8124;48.634;8.120;2022-12-11T02:26:42;1.70;99.90
16040;DHT22;8124;48.634;8.120;2022-12-11T02:31:53;1.70;99.90
16040;DHT22;8124;48.634;8.120;2022-12-11T02:37:03;1.50;99.90
16040;DHT22;8124;48.634;8.120;2022-12-11T02:42:08;1.40;99.90
16040;DHT22;8124;48.634;8.120;2022-12-11T02:47:15;1.40;99.90
16040;DHT22;8124;48.634;8.120;2022-12-11T02:52:22;1.40;99.90
16040;DHT22;8124;48.634;8.120;2022-12-11T02:57:29;1.30;99.90
16040;DHT22;8124;48.634;8.120;2022-12-11T03:02:35;1.20;99.90
16040;DHT22;8124;48.634;8.120;2022-12-11T03:07:40;1.30;99.90
16040;DHT22;8124;48.634;8.120;2022-12-11T03:12:46;1.40;99.90
16040;DHT22;8124;48.634;8.120;2022-12-11T03:18:02;1.60;99.90
16040;DHT22;8124;48.634;8.120;2022-12-11T03:23:14;1.50;99.90
16040;DHT22;8124;48.634;8.120;2022-12-11T03:28:25;1.50;99.90
16040;DHT22;8124;48.634;8.120;2022-12-11T03:33:32;1.70;99.90
16040;DHT22;8124;48.634;8.120;2022-12-11T03:38:40;1.60;99.90
16040;DHT22;8124;48.634;8.120;2022-12-11T03:43:47;1.50;99.90
16040;DHT22;8124;48.634;8.120;2022-12-11T03:48:53;1.50;99.90
16040;DHT22;8124;48.634;8.120;2022-12-11T03:53:58;1.50;99.90
16040;DHT22;8124;48.634;8.120;2022-12-11T03:59:01;1.60;99.90
16040;DHT22;8124;48.634;8.120;2022-12-11T04:04:06;1.70;99.90
16040;DHT22;8124;48.634;8.120;2022-12-11T04:09:09;1.70;99.90
16040;DHT22;8124;48.634;8.120;2022-12-11T04:14:13;1.60;99.90
16040;DHT22;8124;48.634;8.120;2022-12-11T04:19:35;1.50;99.90
16040;DHT22;8124;48.634;8.120;2022-12-11T04:24:56;1.50;99.90
16040;DHT22;8124;48.634;8.120;2022-12-11T04:29:59;1.50;99.90
16040;DHT22;8124;48.634;8.120;2022-12-11T04:35:07;1.50;99.90
16040;DHT22;8124;48.634;8.120;2022-12-11T04:40:13;1.60;99.90
16040;DHT22;8124;48.634;8.120;2022-12-11T04:45:17;1.70;99.90
16040;DHT22;8124;48.634;8.120;2022-12-11T04:50:21;1.60;99.90
16040;DHT22;8124;48.634;8.120;2022-12-11T04:55:24;1.60;99.90
16040;DHT22;8124;48.634;8.120;2022-12-11T05:00:27;1.60;99.90
16040;DHT22;8124;48.634;8.120;2022-12-11T05:05:32;1.70;99.90
16040;DHT22;8124;48.634;8.120;2022-12-11T05:10:35;1.70;99.90
16040;DHT22;8124;48.634;8.120;2022-12-11T05:15:38;1.50;99.90
16040;DHT22;8124;48.634;8.120;2022-12-11T05:20:42;1.50;99.90
16040;DHT22;8124;48.634;8.120;2022-12-11T05:25:50;1.60;99.90
16040;DHT22;8124;48.634;8.120;2022-12-11T05:30:57;1.50;99.90
16040;DHT22;8124;48.634;8.120;2022-12-11T05:36:02;1.40;99.90
16040;DHT22;8124;48.634;8.120;2022-12-11T05:41:06;1.40;99.90
16040;DHT22;8124;48.634;8.120;2022-12-11T05:46:11;1.00;99.90
16040;DHT22;8124;48.634;8.120;2022-12-11T05:51:16;1.10;99.90
16040;DHT22;8124;48.634;8.120;2022-12-11T05:56:22;1.30;99.90
16040;DHT22;8124;48.634;8.120;2022-12-11T06:01:27;1.50;99.90
16040;DHT22;8124;48.634;8.120;2022-12-11T06:06:32;1.60;99.90
16040;DHT22;8124;48.634;8.120;2022-12-11T06:11:35;1.40;99.90
16040;DHT22;8124;48.634;8.120;2022-12-11T06:16:38;1.20;99.90
16040;DHT22;8124;48.634;8.120;2022-12-11T06:21:44;0.90;99.90
16040;DHT22;8124;48.634;8.120;2022-12-11T06:26:49;1.00;99.90
16040;DHT22;8124;48.634;8.120;2022-12-11T06:31:52;1.30;99.90
16040;DHT22;8124;48.634;8.120;2022-12-11T06:36:56;1.30;99.90
16040;DHT22;8124;48.634;8.120;2022-12-11T06:41:59;1.30;99.90
16040;DHT22;8124;48.634;8.120;2022-12-11T06:47:02;1.30;99.90
16040;DHT22;8124;48.634;8.120;2022-12-11T06:52:07;1.30;99.90
16040;DHT22;8124;48.634;8.120;2022-12-11T06:57:17;1.20;99.90
16040;DHT22;8124;48.634;8.120;2022-12-11T07:02:20;1.10;99.90
16040;DHT22;8124;48.634;8.120;2022-12-11T07:07:25;0.80;99.90
16040;DHT22;8124;48.634;8.120;2022-12-11T07:12:28;0.60;99.90
16040;DHT22;8124;48.634;8.120;2022-12-11T07:17:31;0.50;99.90
16040;DHT22;8124;48.634;8.120;2022-12-11T07:22:35;0.40;99.90
16040;DHT22;8124;48.634;8.120;2022-12-11T07:27:45;0.30;99.90
16040;DHT22;8124;48.634;8.120;2022-12-11T07:32:48;0.50;99.90
16040;DHT22;8124;48.634;8.120;2022-12-11T07:37:52;0.50;99.90
16040;DHT22;8124;48.634;8.120;2022-12-11T07:42:55;0.90;99.90
16040;DHT22;8124;48.634;8.120;2022-12-11T07:47:58;1.10;99.90
16040;DHT22;8124;48.634;8.120;2022-12-11T07:53:02;1.10;99.90
16040;DHT22;8124;48.634;8.120;2022-12-11T07:58:05;1.30;99.90
16040;DHT22;8124;48.634;8.120;2022-12-11T08:03:08;1.30;99.90
16040;DHT22;8124;48.634;8.120;2022-12-11T08:08:12;1.40;99.90
16040;DHT22;8124;48.634;8.120;2022-12-11T08:13:15;1.50;99.90
16040;DHT22;8124;48.634;8.120;2022-12-11T08:18:18;1.60;99.90
16040;DHT22;8124;48.634;8.120;2022-12-11T08:23:22;1.60;99.90
16040;DHT22;8124;48.634;8.120;2022-12-11T08:28:25;1.70;99.90
16040;DHT22;8124;48.634;8.120;2022-12-11T08:33:28;1.70;99.90
16040;DHT22;8124;48.634;8.120;2022-12-11T08:38:32;1.50;99.90
16040;DHT22;8124;48.634;8.120;2022-12-11T08:43:35;1.60;99.90
16040;DHT22;8124;48.634;8.120;2022-12-11T08:48:40;3.20;99.90
16040;DHT22;8124;48.634;8.120;2022-12-11T08:53:44;2.90;99.90
16040;DHT22;8124;48.634;8.120;2022-12-11T08:58:47;2.50;99.90
16040;DHT22;8124;48.634;8.120;2022-12-11T09:03:51;2.30;99.90
16040;DHT22;8124;48.634;8.120;2022-12-11T09:08:58;2.20;99.90
16040;DHT22;8124;48.634;8.120;2022-12-11T09:14:02;2.20;99.90
16040;DHT22;8124;48.634;8.120;2022-12-11T09:19:11;2.20;99.90
16040;DHT22;8124;48.634;8.120;2022-12-11T09:24:16;2.00;99.90
16040;DHT22;8124;48.634;8.120;2022-12-11T09:29:18;2.10;99.90
16040;DHT22;8124;48.634;8.120;2022-12-11T09:34:22;2.20;99.90
16040;DHT22;8124;48.634;8.120;2022-12-11T09:39:31;2.20;99.90
16040;DHT22;8124;48.634;8.120;2022-12-11T09:44:39;2.00;99.90
16040;DHT22;8124;48.634;8.120;2022-12-11T09:49:44;2.00;99.90
16040;DHT22;8124;48.634;8.120;2022-12-11T09:54:52;2.10;99.90
16040;DHT22;8124;48.634;8.120;2022-12-11T10:00:13;2.20;99.90
16040;DHT22;8124;48.634;8.120;2022-12-11T10:05:21;2.30;99.90
16040;DHT22;8124;48.634;8.120;2022-12-11T10:10:38;2.30;99.90
16040;DHT22;8124;48.634;8.120;2022-12-11T10:15:47;2.30;99.90
16040;DHT22;8124;48.634;8.120;2022-12-11T10:20:52;2.30;99.90
16040;DHT22;8124;48.634;8.120;2022-12-11T10:26:06;2.30;99.90
16040;DHT22;8124;48.634;8.120;2022-12-11T10:31:15;2.40;99.90
16040;DHT22;8124;48.634;8.120;2022-12-11T10:36:25;2.40;99.90
16040;DHT22;8124;48.634;8.120;2022-12-11T10:41:37;2.60;99.90
16040;DHT22;8124;48.634;8.120;2022-12-11T10:46:40;2.70;99.90
16040;DHT22;8124;48.634;8.120;2022-12-11T10:51:43;2.80;99.90
16040;DHT22;8124;48.634;8.120;2022-12-11T10:56:48;2.90;99.90
16040;DHT22;8124;48.634;8.120;2022-12-11T11:01:52;2.90;99.90
16040;DHT22;8124;48.634;8.120;2022-12-11T11:07:07;2.80;99.90
16040;DHT22;8124;48.634;8.120;2022-12-11T11:12:21;2.80;99.90
16040;DHT22;8124;48.634;8.120;2022-12-11T11:17:27;2.90;99.90
16040;DHT22;8124;48.634;8.120;2022-12-11T11:22:38;2.90;99.90
16040;DHT22;8124;48.634;8.120;2022-12-11T11:27:46;3.00;99.90
16040;DHT22;8124;48.634;8.120;2022-12-11T11:32:53;3.10;99.90
16040;DHT22;8124;48.634;8.120;2022-12-11T11:38:01;3.00;99.90
16040;DHT22;8124;48.634;8.120;2022-12-11T11:43:22;2.80;99.90
16040;DHT22;8124;48.634;8.120;2022-12-11T11:48:37;2.80;99.90
16040;DHT22;8124;48.634;8.120;2022-12-11T11:53:46;2.80;99.90
16040;DHT22;8124;48.634;8.120;2022-12-11T11:58:58;2.90;99.90
16040;DHT22;8124;48.634;8.120;2022-12-11T12:04:03;2.90;99.90
16040;DHT22;8124;48.634;8.120;2022-12-11T12:09:16;3.00;99.90
16040;DHT22;8124;48.634;8.120;2022-12-11T12:14:26;2.90;99.90
16040;DHT22;8124;48.634;8.120;2022-12-11T12:20:00;2.80;99.90
16040;DHT22;8124;48.634;8.120;2022-12-11T12:25:15;2.80;99.90
16040;DHT22;8124;48.634;8.120;2022-12-11T12:30:21;2.90;99.90
16040;DHT22;8124;48.634;8.120;2022-12-11T12:35:32;2.90;99.90
16040;DHT22;8124;48.634;8.120;2022-12-11T12:40:44;2.60;99.90
16040;DHT22;8124;48.634;8.120;2022-12-11T12:46:04;2.70;99.90
16040;DHT22;8124;48.634;8.120;2022-12-11T12:51:13;2.80;99.90
16040;DHT22;8124;48.634;8.120;2022-12-11T12:56:16;2.90;99.90
16040;DHT22;8124;48.634;8.120;2022-12-11T13:01:23;2.90;99.90
16040;DHT22;8124;48.634;8.120;2022-12-11T13:06:29;3.10;99.90
16040;DHT22;8124;48.634;8.120;2022-12-11T13:11:33;3.20;99.90
16040;DHT22;8124;48.634;8.120;2022-12-11T13:16:40;3.20;99.90
16040;DHT22;8124;48.634;8.120;2022-12-11T13:21:54;3.10;99.90
16040;DHT22;8124;48.634;8.120;2022-12-11T13:27:07;3.30;99.90
16040;DHT22;8124;48.634;8.120;2022-12-11T13:32:22;3.20;99.90
16040;DHT22;8124;48.634;8.120;2022-12-11T13:37:29;3.30;99.90
16040;DHT22;8124;48.634;8.120;2022-12-11T13:42:39;3.20;99.90
16040;DHT22;8124;48.634;8.120;2022-12-11T13:47:47;3.10;99.90
16040;DHT22;8124;48.634;8.120;2022-12-11T13:52:53;3.10;99.90
16040;DHT22;8124;48.634;8.120;2022-12-11T13:57:57;3.00;99.90
16040;DHT22;8124;48.634;8.120;2022-12-11T14:03:04;2.90;99.90
16040;DHT22;8124;48.634;8.120;2022-12-11T14:08:08;2.90;99.90
16040;DHT22;8124;48.634;8.120;2022-12-11T14:13:16;2.90;99.90
16040;DHT22;8124;48.634;8.120;2022-12-11T14:18:25;3.00;99.90
16040;DHT22;8124;48.634;8.120;2022-12-11T14:23:30;3.20;99.90
16040;DHT22;8124;48.634;8.120;2022-12-11T14:28:36;3.10;99.90
16040;DHT22;8124;48.634;8.120;2022-12-11T14:33:47;3.00;99.90
16040;DHT22;8124;48.634;8.120;2022-12-11T14:38:56;2.90;99.90
16040;DHT22;8124;48.634;8.120;2022-12-11T14:44:03;2.80;99.90
16040;DHT22;8124;48.634;8.120;2022-12-11T14:49:16;2.70;99.90
16040;DHT22;8124;48.634;8.120;2022-12-11T14:54:26;2.80;99.90
16040;DHT22;8124;48.634;8.120;2022-12-11T14:59:36;2.90;99.90
16040;DHT22;8124;48.634;8.120;2022-12-11T15:04:41;2.80;99.90
16040;DHT22;8124;48.634;8.120;2022-12-11T15:09:45;2.50;99.90
16040;DHT22;8124;48.634;8.120;2022-12-11T15:14:50;2.60;99.90
16040;DHT22;8124;48.634;8.120;2022-12-11T15:20:02;2.80;99.90
16040;DHT22;8124;48.634;8.120;2022-12-11T15:25:18;2.80;99.90
16040;DHT22;8124;48.634;8.120;2022-12-11T15:30:30;2.80;99.90
16040;DHT22;8124;48.634;8.120;2022-12-11T15:35:36;2.80;99.90
16040;DHT22;8124;48.634;8.120;2022-12-11T15:40:39;3.00;99.90
16040;DHT22;8124;48.634;8.120;2022-12-11T15:45:42;3.00;99.90
16040;DHT22;8124;48.634;8.120;2022-12-11T15:50:47;2.90;99.90
16040;DHT22;8124;48.634;8.120;2022-12-11T15:55:50;2.90;99.90
16040;DHT22;8124;48.634;8.120;2022-12-11T16:00:53;3.00;99.90
16040;DHT22;8124;48.634;8.120;2022-12-11T16:06:00;3.10;99.90
16040;DHT22;8124;48.634;8.120;2022-12-11T16:11:03;3.10;99.90
16040;DHT22;8124;48.634;8.120;2022-12-11T16:16:06;2.90;99.90
16040;DHT22;8124;48.634;8.120;2022-12-11T16:21:11;2.70;99.90
16040;DHT22;8124;48.634;8.120;2022-12-11T16:26:21;2.70;99.90
16040;DHT22;8124;48.634;8.120;2022-12-11T16:31:24;2.70;99.90
16040;DHT22;8124;48.634;8.120;2022-12-11T16:36:29;2.90;99.90
16040;DHT22;8124;48.634;8.120;2022-12-11T16:41:45;2.80;99.90
16040;DHT22;8124;48.634;8.120;2022-12-11T16:46:49;2.70;99.90
16040;DHT22;8124;48.634;8.120;2022-12-11T16:51:53;2.40;99.90
16040;DHT22;8124;48.634;8.120;2022-12-11T16:56:56;2.40;99.90
16040;DHT22;8124;48.634;8.120;2022-12-11T17:01:59;2.20;99.90
16040;DHT22;8124;48.634;8.120;2022-12-11T17:07:03;2.10;99.90
16040;DHT22;8124;48.634;8.120;2022-12-11T17:12:07;2.10;99.90
16040;DHT22;8124;48.634;8.120;2022-12-11T17:17:10;2.10;99.90
16040;DHT22;8124;48.634;8.120;2022-12-11T17:22:14;2.00;99.90
16040;DHT22;8124;48.634;8.120;2022-12-11T17:27:17;1.80;99.90
16040;DHT22;8124;48.634;8.120;2022-12-11T17:32:20;2.00;99.90
16040;DHT22;8124;48.634;8.120;2022-12-11T17:37:24;1.90;99.90
16040;DHT22;8124;48.634;8.120;2022-12-11T17:42:27;1.90;99.90
16040;DHT22;8124;48.634;8.120;2022-12-11T17:47:30;2.00;99.90
16040;DHT22;8124;48.634;8.120;2022-12-11T17:52:34;2.00;99.90
16040;DHT22;8124;48.634;8.120;2022-12-11T17:57:44;2.10;99.90
16040;DHT22;8124;48.634;8.120;2022-12-11T18:02:47;2.10;99.90
16040;DHT22;8124;48.634;8.120;2022-12-11T18:07:52;2.30;99.90
16040;DHT22;8124;48.634;8.120;2022-12-11T18:12:58;2.30;99.90
16040;DHT22;8124;48.634;8.120;2022-12-11T18:18:01;2.40;99.90
16040;DHT22;8124;48.634;8.120;2022-12-11T18:23:09;2.40;99.90
16040;DHT22;8124;48.634;8.120;2022-12-11T18:28:12;2.40;99.90
16040;DHT22;8124;48.634;8.120;2022-12-11T18:33:17;2.40;99.90
16040;DHT22;8124;48.634;8.120;2022-12-11T18:38:22;2.30;99.90
16040;DHT22;8124;48.634;8.120;2022-12-11T18:43:26;2.30;99.90
16040;DHT22;8124;48.634;8.120;2022-12-11T18:48:29;2.40;99.90
16040;DHT22;8124;48.634;8.120;2022-12-11T18:53:36;2.40;99.90
16040;DHT22;8124;48.634;8.120;2022-12-11T18:58:40;2.30;99.90
16040;DHT22;8124;48.634;8.120;2022-12-11T19:03:44;2.20;99.90
16040;DHT22;8124;48.634;8.120;2022-12-11T19:08:49;2.00;99.90
16040;DHT22;8124;48.634;8.120;2022-12-11T19:13:53;1.80;99.90
16040;DHT22;8124;48.634;8.120;2022-12-11T19:18:57;1.80;99.90
16040;DHT22;8124;48.634;8.120;2022-12-11T19:24:01;1.90;99.90
16040;DHT22;8124;48.634;8.120;2022-12-11T19:29:05;1.70;99.90
16040;DHT22;8124;48.634;8.120;2022-12-11T19:34:08;1.70;99.90
16040;DHT22;8124;48.634;8.120;2022-12-11T19:39:13;1.70;99.90
16040;DHT22;8124;48.634;8.120;2022-12-11T19:44:17;1.60;99.90
16040;DHT22;8124;48.634;8.120;2022-12-11T19:49:20;1.20;99.90
16040;DHT22;8124;48.634;8.120;2022-12-11T19:54:26;1.00;99.90
16040;DHT22;8124;48.634;8.120;2022-12-11T19:59:28;0.80;99.90
16040;DHT22;8124;48.634;8.120;2022-12-11T20:04:31;0.90;99.90
16040;DHT22;8124;48.634;8.120;2022-12-11T20:09:39;1.00;99.90
16040;DHT22;8124;48.634;8.120;2022-12-11T20:14:42;1.20;99.90
16040;DHT22;8124;48.634;8.120;2022-12-11T20:19:45;1.30;99.90
16040;DHT22;8124;48.634;8.120;2022-12-11T20:24:49;1.30;99.90
16040;DHT22;8124;48.634;8.120;2022-12-11T20:29:52;1.40;99.90
16040;DHT22;8124;48.634;8.120;2022-12-11T20:34:55;1.50;99.90
16040;DHT22;8124;48.634;8.120;2022-12-11T20:40:00;1.50;99.90
16040;DHT22;8124;48.634;8.120;2022-12-11T20:45:04;1.50;99.90
16040;DHT22;8124;48.634;8.120;2022-12-11T20:50:08;1.50;99.90
16040;DHT22;8124;48.634;8.120;2022-12-11T20:55:14;1.70;99.90
16040;DHT22;8124;48.634;8.120;2022-12-11T21:00:18;1.70;99.90
16040;DHT22;8124;48.634;8.120;2022-12-11T21:05:21;1.70;99.90
16040;DHT22;8124;48.634;8.120;2022-12-11T21:10:32;1.70;99.90
16040;DHT22;8124;48.634;8.120;2022-12-11T21:15:35;1.70;99.90
16040;DHT22;8124;48.634;8.120;2022-12-11T21:20:41;1.70;99.90
16040;DHT22;8124;48.634;8.120;2022-12-11T21:25:46;1.70;99.90
16040;DHT22;8124;48.634;8.120;2022-12-11T21:30:49;1.80;99.90
16040;DHT22;8124;48.634;8.120;2022-12-11T21:41:30;1.80;99.90
16040;DHT22;8124;48.634;8.120;2022-12-11T21:46:33;1.80;99.90
16040;DHT22;8124;48.634;8.120;2022-12-11T21:52:03;1.70;99.90
16040;DHT22;8124;48.634;8.120;2022-12-11T21:57:07;1.70;99.90
16040;DHT22;8124;48.634;8.120;2022-12-11T22:02:10;1.60;99.90
16040;DHT22;8124;48.634;8.120;2022-12-11T22:07:13;1.60;99.90
16040;DHT22;8124;48.634;8.120;2022-12-11T22:12:22;1.60;99.90
16040;DHT22;8124;48.634;8.120;2022-12-11T22:17:25;1.60;99.90
16040;DHT22;8124;48.634;8.120;2022-12-11T22:22:29;1.50;99.90
16040;DHT22;8124;48.634;8.120;2022-12-11T22:27:33;1.40;99.90
16040;DHT22;8124;48.634;8.120;2022-12-11T22:32:37;1.40;99.90
16040;DHT22;8124;48.634;8.120;2022-12-11T22:37:39;1.30;99.90
16040;DHT22;8124;48.634;8.120;2022-12-11T22:42:44;1.20;99.90
16040;DHT22;8124;48.634;8.120;2022-12-11T22:47:47;1.20;99.90
16040;DHT22;8124;48.634;8.120;2022-12-11T22:52:49;1.10;99.90
16040;DHT22;8124;48.634;8.120;2022-12-11T22:57:54;0.90;99.90
16040;DHT22;8124;48.634;8.120;2022-12-11T23:02:57;0.80;99.90
16040;DHT22;8124;48.634;8.120;2022-12-11T23:08:00;0.80;99.90
16040;DHT22;8124;48.634;8.120;2022-12-11T23:13:04;0.90;99.90
16040;DHT22;8124;48.634;8.120;2022-12-11T23:18:07;0.70;99.90
16040;DHT22;8124;48.634;8.120;2022-12-11T23:23:10;0.60;99.90
16040;DHT22;8124;48.634;8.120;2022-12-11T23:28:14;0.60;99.90
16040;DHT22;8124;48.634;8.120;2022-12-11T23:33:17;0.50;99.90
16040;DHT22;8124;48.634;8.120;2022-12-11T23:38:20;0.60;99.90
16040;DHT22;8124;48.634;8.120;2022-12-11T23:43:25;0.50;99.90
16040;DHT22;8124;48.634;8.120;2022-12-11T23:48:28;0.60;99.90
16040;DHT22;8124;48.634;8.120;2022-12-11T23:53:31;0.50;99.90
16040;DHT22;8124;48.634;8.120;2022-12-11T23:58:36;0.50;99.90
